sensor_id;sensor_type;location;lat;lon;timestamp;P1;durP1;ratioP1;P2;durP2;ratioP2
53022;SDS011;38913;44.338;11.206;2023-08-17T00:02:10;14.15;;;12.70;;
53022;SDS011;38913;44.338;11.206;2023-08-17T00:04:35;14.20;;;12.80;;
53022;SDS011;38913;44.338;11.206;2023-08-17T00:07:00;15.00;;;13.60;;
53022;SDS011;38913;44.338;11.206;2023-08-17T00:09:26;15.25;;;13.63;;
53022;SDS011;38913;44.338;11.206;2023-08-17T00:11:51;15.57;;;14.07;;
53022;SDS011;38913;44.338;11.206;2023-08-17T00:14:16;15.47;;;13.97;;
53022;SDS011;38913;44.338;11.206;2023-08-17T00:16:41;15.73;;;14.23;;
53022;SDS011;38913;44.338;11.206;2023-08-17T00:19:07;15.63;;;14.13;;
53022;SDS011;38913;44.338;11.206;2023-08-17T00:21:32;14.98;;;13.57;;
53022;SDS011;38913;44.338;11.206;2023-08-17T00:23:57;14.43;;;13.10;;
53022;SDS011;38913;44.338;11.206;2023-08-17T00:26:23;15.93;;;14.30;;
53022;SDS011;38913;44.338;11.206;2023-08-17T00:28:48;16.67;;;15.07;;
53022;SDS011;38913;44.338;11.206;2023-08-17T00:31:13;15.43;;;13.93;;
53022;SDS011;38913;44.338;11.206;2023-08-17T00:33:39;15.97;;;14.17;;
53022;SDS011;38913;44.338;11.206;2023-08-17T00:36:04;14.87;;;13.37;;
53022;SDS011;38913;44.338;11.206;2023-08-17T00:38:29;15.88;;;14.30;;
53022;SDS011;38913;44.338;11.206;2023-08-17T00:40:55;15.07;;;13.48;;
53022;SDS011;38913;44.338;11.206;2023-08-17T00:43:20;15.75;;;14.25;;
53022;SDS011;38913;44.338;11.206;2023-08-17T00:45:46;16.67;;;14.73;;
53022;SDS011;38913;44.338;11.206;2023-08-17T00:48:11;15.57;;;13.88;;
53022;SDS011;38913;44.338;11.206;2023-08-17T00:50:37;15.43;;;13.90;;
53022;SDS011;38913;44.338;11.206;2023-08-17T00:53:03;15.73;;;14.05;;
53022;SDS011;38913;44.338;11.206;2023-08-17T00:55:28;15.18;;;13.48;;
53022;SDS011;38913;44.338;11.206;2023-08-17T00:57:53;15.38;;;13.85;;
53022;SDS011;38913;44.338;11.206;2023-08-17T01:00:21;15.38;;;13.75;;
53022;SDS011;38913;44.338;11.206;2023-08-17T01:02:47;14.35;;;12.88;;
53022;SDS011;38913;44.338;11.206;2023-08-17T01:05:12;14.50;;;13.00;;
53022;SDS011;38913;44.338;11.206;2023-08-17T01:07:37;13.82;;;12.52;;
53022;SDS011;38913;44.338;11.206;2023-08-17T01:10:03;14.30;;;12.75;;
53022;SDS011;38913;44.338;11.206;2023-08-17T01:12:31;13.98;;;12.52;;
53022;SDS011;38913;44.338;11.206;2023-08-17T01:17:42;15.40;;;13.90;;
53022;SDS011;38913;44.338;11.206;2023-08-17T01:20:08;15.77;;;14.27;;
53022;SDS011;38913;44.338;11.206;2023-08-17T01:22:37;16.00;;;14.40;;
53022;SDS011;38913;44.338;11.206;2023-08-17T01:25:05;15.20;;;13.70;;
53022;SDS011;38913;44.338;11.206;2023-08-17T01:27:33;15.93;;;14.30;;
53022;SDS011;38913;44.338;11.206;2023-08-17T01:29:59;15.43;;;13.85;;
53022;SDS011;38913;44.338;11.206;2023-08-17T01:32:33;15.23;;;13.63;;
53022;SDS011;38913;44.338;11.206;2023-08-17T01:35:05;16.35;;;14.65;;
53022;SDS011;38913;44.338;11.206;2023-08-17T01:37:34;15.27;;;13.77;;
53022;SDS011;38913;44.338;11.206;2023-08-17T01:40:01;15.45;;;13.90;;
53022;SDS011;38913;44.338;11.206;2023-08-17T01:42:26;14.40;;;13.07;;
53022;SDS011;38913;44.338;11.206;2023-08-17T01:44:52;17.75;;;14.77;;
53022;SDS011;38913;44.338;11.206;2023-08-17T01:47:21;15.43;;;13.85;;
53022;SDS011;38913;44.338;11.206;2023-08-17T01:49:46;14.68;;;13.27;;
53022;SDS011;38913;44.338;11.206;2023-08-17T01:52:12;16.43;;;14.87;;
53022;SDS011;38913;44.338;11.206;2023-08-17T01:54:37;15.53;;;13.90;;
53022;SDS011;38913;44.338;11.206;2023-08-17T01:57:02;15.70;;;14.10;;
53022;SDS011;38913;44.338;11.206;2023-08-17T01:59:27;14.70;;;13.20;;
53022;SDS011;38913;44.338;11.206;2023-08-17T02:01:53;15.03;;;13.50;;
53022;SDS011;38913;44.338;11.206;2023-08-17T02:04:18;14.90;;;13.40;;
53022;SDS011;38913;44.338;11.206;2023-08-17T02:06:43;14.90;;;13.37;;
53022;SDS011;38913;44.338;11.206;2023-08-17T02:09:08;16.30;;;13.53;;
53022;SDS011;38913;44.338;11.206;2023-08-17T02:11:34;14.67;;;13.23;;
53022;SDS011;38913;44.338;11.206;2023-08-17T02:13:59;15.17;;;13.77;;
53022;SDS011;38913;44.338;11.206;2023-08-17T02:16:24;15.57;;;14.07;;
53022;SDS011;38913;44.338;11.206;2023-08-17T02:18:49;14.93;;;13.53;;
53022;SDS011;38913;44.338;11.206;2023-08-17T02:21:15;14.37;;;12.97;;
53022;SDS011;38913;44.338;11.206;2023-08-17T02:23:40;15.13;;;13.73;;
53022;SDS011;38913;44.338;11.206;2023-08-17T02:26:05;15.27;;;13.67;;
53022;SDS011;38913;44.338;11.206;2023-08-17T02:28:30;15.43;;;13.82;;
53022;SDS011;38913;44.338;11.206;2023-08-17T02:30:56;14.37;;;12.97;;
53022;SDS011;38913;44.338;11.206;2023-08-17T02:33:21;15.48;;;14.07;;
53022;SDS011;38913;44.338;11.206;2023-08-17T02:35:50;15.63;;;14.23;;
53022;SDS011;38913;44.338;11.206;2023-08-17T02:38:15;15.85;;;14.15;;
53022;SDS011;38913;44.338;11.206;2023-08-17T02:40:40;15.80;;;14.20;;
53022;SDS011;38913;44.338;11.206;2023-08-17T02:43:06;15.17;;;13.67;;
53022;SDS011;38913;44.338;11.206;2023-08-17T02:45:31;16.70;;;15.00;;
53022;SDS011;38913;44.338;11.206;2023-08-17T02:47:58;15.68;;;14.18;;
53022;SDS011;38913;44.338;11.206;2023-08-17T02:50:23;15.18;;;13.68;;
53022;SDS011;38913;44.338;11.206;2023-08-17T02:52:48;15.60;;;14.10;;
53022;SDS011;38913;44.338;11.206;2023-08-17T02:55:14;14.90;;;13.40;;
53022;SDS011;38913;44.338;11.206;2023-08-17T02:57:39;15.23;;;13.83;;
53022;SDS011;38913;44.338;11.206;2023-08-17T03:00:04;15.53;;;14.00;;
53022;SDS011;38913;44.338;11.206;2023-08-17T03:02:30;15.55;;;13.95;;
53022;SDS011;38913;44.338;11.206;2023-08-17T03:04:55;15.87;;;14.27;;
53022;SDS011;38913;44.338;11.206;2023-08-17T03:07:20;14.97;;;13.57;;
53022;SDS011;38913;44.338;11.206;2023-08-17T03:09:46;16.55;;;14.93;;
53022;SDS011;38913;44.338;11.206;2023-08-17T03:12:11;15.60;;;14.10;;
53022;SDS011;38913;44.338;11.206;2023-08-17T03:14:36;16.47;;;14.73;;
53022;SDS011;38913;44.338;11.206;2023-08-17T03:19:30;16.02;;;14.43;;
53022;SDS011;38913;44.338;11.206;2023-08-17T03:21:55;16.13;;;14.43;;
53022;SDS011;38913;44.338;11.206;2023-08-17T03:24:20;16.40;;;14.67;;
53022;SDS011;38913;44.338;11.206;2023-08-17T03:26:45;16.93;;;14.37;;
53022;SDS011;38913;44.338;11.206;2023-08-17T03:29:10;15.03;;;13.47;;
53022;SDS011;38913;44.338;11.206;2023-08-17T03:31:36;16.70;;;14.63;;
53022;SDS011;38913;44.338;11.206;2023-08-17T03:34:04;17.38;;;15.55;;
53022;SDS011;38913;44.338;11.206;2023-08-17T03:36:29;16.70;;;14.98;;
53022;SDS011;38913;44.338;11.206;2023-08-17T03:38:55;15.63;;;14.10;;
53022;SDS011;38913;44.338;11.206;2023-08-17T03:41:21;15.67;;;13.97;;
53022;SDS011;38913;44.338;11.206;2023-08-17T03:43:48;16.75;;;14.55;;
53022;SDS011;38913;44.338;11.206;2023-08-17T03:46:13;15.47;;;13.87;;
53022;SDS011;38913;44.338;11.206;2023-08-17T03:48:38;16.67;;;14.77;;
53022;SDS011;38913;44.338;11.206;2023-08-17T03:51:04;16.97;;;15.17;;
53022;SDS011;38913;44.338;11.206;2023-08-17T03:53:29;16.45;;;14.75;;
53022;SDS011;38913;44.338;11.206;2023-08-17T03:55:55;15.30;;;13.80;;
53022;SDS011;38913;44.338;11.206;2023-08-17T03:58:20;15.60;;;14.00;;
53022;SDS011;38913;44.338;11.206;2023-08-17T04:00:49;15.83;;;14.17;;
53022;SDS011;38913;44.338;11.206;2023-08-17T04:03:14;15.30;;;13.77;;
53022;SDS011;38913;44.338;11.206;2023-08-17T04:05:39;15.63;;;14.07;;
53022;SDS011;38913;44.338;11.206;2023-08-17T04:08:05;14.63;;;13.23;;
53022;SDS011;38913;44.338;11.206;2023-08-17T04:10:30;15.25;;;13.68;;
53022;SDS011;38913;44.338;11.206;2023-08-17T04:12:58;16.27;;;14.67;;
53022;SDS011;38913;44.338;11.206;2023-08-17T04:15:23;16.17;;;14.60;;
53022;SDS011;38913;44.338;11.206;2023-08-17T04:17:49;16.23;;;14.63;;
53022;SDS011;38913;44.338;11.206;2023-08-17T04:20:14;16.93;;;14.33;;
53022;SDS011;38913;44.338;11.206;2023-08-17T04:22:39;15.88;;;14.15;;
53022;SDS011;38913;44.338;11.206;2023-08-17T04:25:05;15.50;;;14.00;;
53022;SDS011;38913;44.338;11.206;2023-08-17T04:27:30;15.60;;;14.05;;
53022;SDS011;38913;44.338;11.206;2023-08-17T04:29:56;15.77;;;14.27;;
53022;SDS011;38913;44.338;11.206;2023-08-17T04:32:21;15.20;;;13.70;;
53022;SDS011;38913;44.338;11.206;2023-08-17T04:34:47;16.40;;;14.70;;
53022;SDS011;38913;44.338;11.206;2023-08-17T04:37:13;17.13;;;15.43;;
53022;SDS011;38913;44.338;11.206;2023-08-17T04:39:38;15.60;;;14.00;;
53022;SDS011;38913;44.338;11.206;2023-08-17T04:42:03;16.07;;;14.33;;
53022;SDS011;38913;44.338;11.206;2023-08-17T04:44:29;19.40;;;15.38;;
53022;SDS011;38913;44.338;11.206;2023-08-17T04:46:54;22.35;;;14.57;;
53022;SDS011;38913;44.338;11.206;2023-08-17T04:49:20;24.87;;;15.43;;
53022;SDS011;38913;44.338;11.206;2023-08-17T04:51:45;34.37;;;16.83;;
53022;SDS011;38913;44.338;11.206;2023-08-17T04:54:10;26.67;;;16.70;;
53022;SDS011;38913;44.338;11.206;2023-08-17T04:56:35;26.93;;;16.67;;
53022;SDS011;38913;44.338;11.206;2023-08-17T04:59:00;22.70;;;15.20;;
53022;SDS011;38913;44.338;11.206;2023-08-17T05:01:26;29.63;;;15.80;;
53022;SDS011;38913;44.338;11.206;2023-08-17T05:03:51;23.08;;;15.60;;
53022;SDS011;38913;44.338;11.206;2023-08-17T05:06:16;20.90;;;14.90;;
53022;SDS011;38913;44.338;11.206;2023-08-17T05:08:42;18.87;;;15.50;;
53022;SDS011;38913;44.338;11.206;2023-08-17T05:11:07;21.17;;;15.20;;
53022;SDS011;38913;44.338;11.206;2023-08-17T05:13:32;18.40;;;14.20;;
53022;SDS011;38913;44.338;11.206;2023-08-17T05:15:57;16.47;;;14.00;;
53022;SDS011;38913;44.338;11.206;2023-08-17T05:18:23;16.80;;;13.73;;
53022;SDS011;38913;44.338;11.206;2023-08-17T05:20:48;17.77;;;13.60;;
53022;SDS011;38913;44.338;11.206;2023-08-17T05:23:13;23.80;;;13.57;;
53022;SDS011;38913;44.338;11.206;2023-08-17T05:25:38;23.10;;;13.40;;
53022;SDS011;38913;44.338;11.206;2023-08-17T05:28:04;17.60;;;12.63;;
53022;SDS011;38913;44.338;11.206;2023-08-17T05:30:29;13.10;;;11.88;;
53022;SDS011;38913;44.338;11.206;2023-08-17T05:32:55;14.45;;;11.88;;
53022;SDS011;38913;44.338;11.206;2023-08-17T05:35:20;14.43;;;12.05;;
53022;SDS011;38913;44.338;11.206;2023-08-17T05:37:45;13.80;;;12.33;;
53022;SDS011;38913;44.338;11.206;2023-08-17T05:40:11;12.23;;;11.05;;
53022;SDS011;38913;44.338;11.206;2023-08-17T05:42:36;12.25;;;11.10;;
53022;SDS011;38913;44.338;11.206;2023-08-17T05:45:01;12.50;;;11.38;;
53022;SDS011;38913;44.338;11.206;2023-08-17T05:47:27;12.20;;;10.90;;
53022;SDS011;38913;44.338;11.206;2023-08-17T05:49:52;12.33;;;11.03;;
53022;SDS011;38913;44.338;11.206;2023-08-17T05:52:17;17.17;;;11.75;;
53022;SDS011;38913;44.338;11.206;2023-08-17T05:54:42;11.73;;;10.53;;
53022;SDS011;38913;44.338;11.206;2023-08-17T05:57:08;11.17;;;10.17;;
53022;SDS011;38913;44.338;11.206;2023-08-17T05:59:36;11.68;;;10.52;;
53022;SDS011;38913;44.338;11.206;2023-08-17T06:02:01;11.30;;;10.27;;
53022;SDS011;38913;44.338;11.206;2023-08-17T06:04:26;11.37;;;10.37;;
53022;SDS011;38913;44.338;11.206;2023-08-17T06:06:52;11.67;;;10.47;;
53022;SDS011;38913;44.338;11.206;2023-08-17T06:09:17;12.90;;;10.85;;
53022;SDS011;38913;44.338;11.206;2023-08-17T06:11:42;11.95;;;10.80;;
53022;SDS011;38913;44.338;11.206;2023-08-17T06:14:08;11.20;;;9.90;;
53022;SDS011;38913;44.338;11.206;2023-08-17T06:16:33;11.53;;;10.23;;
53022;SDS011;38913;44.338;11.206;2023-08-17T06:18:58;11.75;;;10.60;;
53022;SDS011;38913;44.338;11.206;2023-08-17T06:21:23;11.67;;;10.57;;
53022;SDS011;38913;44.338;11.206;2023-08-17T06:23:49;10.50;;;9.60;;
53022;SDS011;38913;44.338;11.206;2023-08-17T06:26:14;14.35;;;9.70;;
53022;SDS011;38913;44.338;11.206;2023-08-17T06:28:39;11.05;;;9.90;;
53022;SDS011;38913;44.338;11.206;2023-08-17T06:31:05;10.90;;;9.80;;
53022;SDS011;38913;44.338;11.206;2023-08-17T06:33:30;12.13;;;9.82;;
53022;SDS011;38913;44.338;11.206;2023-08-17T06:35:55;10.27;;;9.40;;
53022;SDS011;38913;44.338;11.206;2023-08-17T06:38:21;10.90;;;9.80;;
53022;SDS011;38913;44.338;11.206;2023-08-17T06:40:46;11.07;;;10.00;;
53022;SDS011;38913;44.338;11.206;2023-08-17T06:43:11;11.02;;;9.98;;
53022;SDS011;38913;44.338;11.206;2023-08-17T06:45:37;10.20;;;9.15;;
53022;SDS011;38913;44.338;11.206;2023-08-17T06:48:02;9.90;;;9.00;;
53022;SDS011;38913;44.338;11.206;2023-08-17T06:50:28;10.18;;;9.18;;
53022;SDS011;38913;44.338;11.206;2023-08-17T06:52:53;10.10;;;9.20;;
53022;SDS011;38913;44.338;11.206;2023-08-17T06:55:18;9.82;;;9.02;;
53022;SDS011;38913;44.338;11.206;2023-08-17T06:57:44;10.10;;;9.10;;
53022;SDS011;38913;44.338;11.206;2023-08-17T07:00:09;9.70;;;8.80;;
53022;SDS011;38913;44.338;11.206;2023-08-17T07:02:36;9.45;;;8.65;;
53022;SDS011;38913;44.338;11.206;2023-08-17T07:05:01;9.77;;;8.77;;
53022;SDS011;38913;44.338;11.206;2023-08-17T07:07:26;9.38;;;8.68;;
53022;SDS011;38913;44.338;11.206;2023-08-17T07:09:51;9.67;;;8.83;;
53022;SDS011;38913;44.338;11.206;2023-08-17T07:12:17;9.60;;;8.80;;
53022;SDS011;38913;44.338;11.206;2023-08-17T07:14:42;9.83;;;8.83;;
53022;SDS011;38913;44.338;11.206;2023-08-17T07:17:07;8.93;;;8.17;;
53022;SDS011;38913;44.338;11.206;2023-08-17T07:19:32;10.73;;;8.53;;
53022;SDS011;38913;44.338;11.206;2023-08-17T07:21:58;9.63;;;8.80;;
53022;SDS011;38913;44.338;11.206;2023-08-17T07:24:23;8.93;;;8.20;;
53022;SDS011;38913;44.338;11.206;2023-08-17T07:26:48;9.40;;;8.60;;
53022;SDS011;38913;44.338;11.206;2023-08-17T07:29:14;9.48;;;8.52;;
53022;SDS011;38913;44.338;11.206;2023-08-17T07:31:39;8.83;;;7.93;;
53022;SDS011;38913;44.338;11.206;2023-08-17T07:34:05;9.50;;;8.38;;
53022;SDS011;38913;44.338;11.206;2023-08-17T07:36:30;9.35;;;8.45;;
53022;SDS011;38913;44.338;11.206;2023-08-17T07:38:55;9.32;;;8.52;;
53022;SDS011;38913;44.338;11.206;2023-08-17T07:41:21;8.57;;;7.77;;
53022;SDS011;38913;44.338;11.206;2023-08-17T07:43:46;9.50;;;7.77;;
53022;SDS011;38913;44.338;11.206;2023-08-17T07:46:11;8.40;;;7.77;;
53022;SDS011;38913;44.338;11.206;2023-08-17T07:48:36;8.97;;;8.17;;
53022;SDS011;38913;44.338;11.206;2023-08-17T07:51:02;8.13;;;7.43;;
53022;SDS011;38913;44.338;11.206;2023-08-17T07:53:27;8.50;;;7.78;;
53022;SDS011;38913;44.338;11.206;2023-08-17T07:55:52;8.33;;;7.53;;
53022;SDS011;38913;44.338;11.206;2023-08-17T07:58:17;8.10;;;7.40;;
53022;SDS011;38913;44.338;11.206;2023-08-17T08:00:43;8.40;;;7.27;;
53022;SDS011;38913;44.338;11.206;2023-08-17T08:03:09;8.00;;;7.25;;
53022;SDS011;38913;44.338;11.206;2023-08-17T08:05:34;7.68;;;6.97;;
53022;SDS011;38913;44.338;11.206;2023-08-17T08:07:59;8.15;;;7.35;;
53022;SDS011;38913;44.338;11.206;2023-08-17T08:10:26;7.45;;;6.72;;
53022;SDS011;38913;44.338;11.206;2023-08-17T08:12:55;8.55;;;7.28;;
53022;SDS011;38913;44.338;11.206;2023-08-17T08:15:20;8.93;;;7.38;;
53022;SDS011;38913;44.338;11.206;2023-08-17T08:17:46;7.97;;;7.17;;
53022;SDS011;38913;44.338;11.206;2023-08-17T08:20:11;7.90;;;7.20;;
53022;SDS011;38913;44.338;11.206;2023-08-17T08:22:36;8.00;;;7.30;;
53022;SDS011;38913;44.338;11.206;2023-08-17T08:25:01;7.33;;;6.80;;
53022;SDS011;38913;44.338;11.206;2023-08-17T08:27:27;7.22;;;6.63;;
53022;SDS011;38913;44.338;11.206;2023-08-17T08:29:52;7.53;;;6.93;;
53022;SDS011;38913;44.338;11.206;2023-08-17T08:32:17;7.27;;;6.67;;
53022;SDS011;38913;44.338;11.206;2023-08-17T08:34:42;7.40;;;6.80;;
53022;SDS011;38913;44.338;11.206;2023-08-17T08:37:08;7.57;;;6.87;;
53022;SDS011;38913;44.338;11.206;2023-08-17T08:39:33;6.87;;;6.27;;
53022;SDS011;38913;44.338;11.206;2023-08-17T08:42:12;7.20;;;6.60;;
53022;SDS011;38913;44.338;11.206;2023-08-17T08:44:37;8.20;;;7.40;;
53022;SDS011;38913;44.338;11.206;2023-08-17T08:47:03;7.33;;;6.63;;
53022;SDS011;38913;44.338;11.206;2023-08-17T08:49:28;7.45;;;6.85;;
53022;SDS011;38913;44.338;11.206;2023-08-17T08:51:53;7.63;;;6.93;;
53022;SDS011;38913;44.338;11.206;2023-08-17T08:54:24;7.80;;;7.10;;
53022;SDS011;38913;44.338;11.206;2023-08-17T08:56:54;7.43;;;6.82;;
53022;SDS011;38913;44.338;11.206;2023-08-17T08:59:22;7.90;;;7.18;;
53022;SDS011;38913;44.338;11.206;2023-08-17T09:01:48;8.40;;;7.15;;
53022;SDS011;38913;44.338;11.206;2023-08-17T09:04:14;7.55;;;6.95;;
53022;SDS011;38913;44.338;11.206;2023-08-17T09:06:39;8.40;;;7.60;;
53022;SDS011;38913;44.338;11.206;2023-08-17T09:09:05;8.07;;;7.47;;
53022;SDS011;38913;44.338;11.206;2023-08-17T09:11:30;9.18;;;7.97;;
53022;SDS011;38913;44.338;11.206;2023-08-17T09:13:56;8.43;;;7.57;;
53022;SDS011;38913;44.338;11.206;2023-08-17T09:16:21;9.48;;;8.00;;
53022;SDS011;38913;44.338;11.206;2023-08-17T09:18:46;8.93;;;7.57;;
53022;SDS011;38913;44.338;11.206;2023-08-17T09:21:21;8.52;;;7.72;;
53022;SDS011;38913;44.338;11.206;2023-08-17T09:23:51;7.88;;;7.18;;
53022;SDS011;38913;44.338;11.206;2023-08-17T09:26:17;8.73;;;7.93;;
53022;SDS011;38913;44.338;11.206;2023-08-17T09:28:44;8.63;;;7.93;;
53022;SDS011;38913;44.338;11.206;2023-08-17T09:31:09;8.53;;;7.73;;
53022;SDS011;38913;44.338;11.206;2023-08-17T09:33:34;9.50;;;8.60;;
53022;SDS011;38913;44.338;11.206;2023-08-17T09:36:00;8.95;;;8.10;;
53022;SDS011;38913;44.338;11.206;2023-08-17T09:38:26;8.53;;;7.67;;
53022;SDS011;38913;44.338;11.206;2023-08-17T09:40:52;8.73;;;7.93;;
53022;SDS011;38913;44.338;11.206;2023-08-17T09:43:18;8.60;;;7.80;;
53022;SDS011;38913;44.338;11.206;2023-08-17T09:45:47;8.35;;;7.63;;
53022;SDS011;38913;44.338;11.206;2023-08-17T09:48:15;8.43;;;7.68;;
53022;SDS011;38913;44.338;11.206;2023-08-17T09:50:41;7.82;;;7.13;;
53022;SDS011;38913;44.338;11.206;2023-08-17T09:53:07;8.63;;;7.47;;
53022;SDS011;38913;44.338;11.206;2023-08-17T09:55:32;7.17;;;6.53;;
53022;SDS011;38913;44.338;11.206;2023-08-17T09:57:58;8.15;;;7.40;;
53022;SDS011;38913;44.338;11.206;2023-08-17T10:00:24;7.22;;;6.63;;
53022;SDS011;38913;44.338;11.206;2023-08-17T10:02:50;9.15;;;7.43;;
53022;SDS011;38913;44.338;11.206;2023-08-17T10:05:19;7.55;;;6.95;;
53022;SDS011;38913;44.338;11.206;2023-08-17T10:07:47;8.40;;;7.47;;
53022;SDS011;38913;44.338;11.206;2023-08-17T10:10:14;8.30;;;7.47;;
53022;SDS011;38913;44.338;11.206;2023-08-17T10:12:44;7.90;;;7.20;;
53022;SDS011;38913;44.338;11.206;2023-08-17T10:15:12;7.70;;;7.07;;
53022;SDS011;38913;44.338;11.206;2023-08-17T10:20:31;8.73;;;7.95;;
53022;SDS011;38913;44.338;11.206;2023-08-17T10:23:06;7.78;;;6.97;;
53022;SDS011;38913;44.338;11.206;2023-08-17T10:25:32;7.85;;;6.78;;
53022;SDS011;38913;44.338;11.206;2023-08-17T10:27:58;8.80;;;7.30;;
53022;SDS011;38913;44.338;11.206;2023-08-17T10:30:25;7.38;;;6.78;;
53022;SDS011;38913;44.338;11.206;2023-08-17T10:32:50;7.70;;;6.90;;
53022;SDS011;38913;44.338;11.206;2023-08-17T10:35:15;7.97;;;7.17;;
53022;SDS011;38913;44.338;11.206;2023-08-17T10:37:41;8.13;;;7.28;;
53022;SDS011;38913;44.338;11.206;2023-08-17T10:40:06;7.95;;;7.25;;
53022;SDS011;38913;44.338;11.206;2023-08-17T10:42:33;8.13;;;7.40;;
53022;SDS011;38913;44.338;11.206;2023-08-17T10:44:59;8.32;;;7.63;;
53022;SDS011;38913;44.338;11.206;2023-08-17T10:47:32;7.97;;;7.28;;
53022;SDS011;38913;44.338;11.206;2023-08-17T10:49:58;11.35;;;7.50;;
53022;SDS011;38913;44.338;11.206;2023-08-17T10:52:34;7.90;;;7.18;;
53022;SDS011;38913;44.338;11.206;2023-08-17T10:55:00;8.07;;;6.85;;
53022;SDS011;38913;44.338;11.206;2023-08-17T11:02:39;8.18;;;6.95;;
53022;SDS011;38913;44.338;11.206;2023-08-17T11:05:04;7.63;;;6.82;;
53022;SDS011;38913;44.338;11.206;2023-08-17T11:07:43;7.05;;;6.45;;
53022;SDS011;38913;44.338;11.206;2023-08-17T11:10:12;7.22;;;6.53;;
53022;SDS011;38913;44.338;11.206;2023-08-17T11:12:52;7.15;;;6.45;;
53022;SDS011;38913;44.338;11.206;2023-08-17T11:15:20;7.35;;;6.35;;
53022;SDS011;38913;44.338;11.206;2023-08-17T11:17:45;6.60;;;6.10;;
53022;SDS011;38913;44.338;11.206;2023-08-17T11:20:10;6.87;;;6.23;;
53022;SDS011;38913;44.338;11.206;2023-08-17T11:22:36;6.43;;;5.82;;
53022;SDS011;38913;44.338;11.206;2023-08-17T11:25:01;7.27;;;6.67;;
53022;SDS011;38913;44.338;11.206;2023-08-17T11:27:26;6.90;;;6.30;;
53022;SDS011;38913;44.338;11.206;2023-08-17T11:29:55;6.85;;;6.25;;
53022;SDS011;38913;44.338;11.206;2023-08-17T11:32:20;7.17;;;6.47;;
53022;SDS011;38913;44.338;11.206;2023-08-17T11:34:45;6.77;;;6.07;;
53022;SDS011;38913;44.338;11.206;2023-08-17T11:37:11;7.43;;;6.72;;
53022;SDS011;38913;44.338;11.206;2023-08-17T11:39:36;7.18;;;6.47;;
53022;SDS011;38913;44.338;11.206;2023-08-17T11:42:01;9.77;;;6.43;;
53022;SDS011;38913;44.338;11.206;2023-08-17T11:44:27;6.93;;;6.18;;
53022;SDS011;38913;44.338;11.206;2023-08-17T11:46:53;6.67;;;6.00;;
53022;SDS011;38913;44.338;11.206;2023-08-17T11:49:18;7.25;;;6.55;;
53022;SDS011;38913;44.338;11.206;2023-08-17T11:51:43;7.07;;;6.27;;
53022;SDS011;38913;44.338;11.206;2023-08-17T11:54:08;6.67;;;6.10;;
53022;SDS011;38913;44.338;11.206;2023-08-17T11:56:34;7.03;;;6.43;;
53022;SDS011;38913;44.338;11.206;2023-08-17T11:58:59;7.05;;;6.35;;
53022;SDS011;38913;44.338;11.206;2023-08-17T12:01:32;7.00;;;5.97;;
53022;SDS011;38913;44.338;11.206;2023-08-17T12:03:59;10.80;;;6.60;;
53022;SDS011;38913;44.338;11.206;2023-08-17T12:06:24;7.07;;;6.37;;
53022;SDS011;38913;44.338;11.206;2023-08-17T12:08:50;6.95;;;6.32;;
53022;SDS011;38913;44.338;11.206;2023-08-17T12:11:15;6.67;;;6.03;;
53022;SDS011;38913;44.338;11.206;2023-08-17T12:13:41;7.28;;;6.57;;
53022;SDS011;38913;44.338;11.206;2023-08-17T12:16:06;6.45;;;5.95;;
53022;SDS011;38913;44.338;11.206;2023-08-17T12:18:34;13.20;;;6.70;;
53022;SDS011;38913;44.338;11.206;2023-08-17T12:21:00;7.25;;;6.50;;
53022;SDS011;38913;44.338;11.206;2023-08-17T12:23:25;7.03;;;6.30;;
53022;SDS011;38913;44.338;11.206;2023-08-17T12:25:54;8.23;;;6.83;;
53022;SDS011;38913;44.338;11.206;2023-08-17T12:28:20;8.20;;;6.78;;
53022;SDS011;38913;44.338;11.206;2023-08-17T12:30:45;8.00;;;7.20;;
53022;SDS011;38913;44.338;11.206;2023-08-17T12:33:10;7.47;;;6.77;;
53022;SDS011;38913;44.338;11.206;2023-08-17T12:35:35;8.13;;;6.70;;
53022;SDS011;38913;44.338;11.206;2023-08-17T12:38:01;8.17;;;7.30;;
53022;SDS011;38913;44.338;11.206;2023-08-17T12:40:26;7.45;;;6.70;;
53022;SDS011;38913;44.338;11.206;2023-08-17T12:42:51;8.63;;;7.30;;
53022;SDS011;38913;44.338;11.206;2023-08-17T12:45:17;11.75;;;7.72;;
53022;SDS011;38913;44.338;11.206;2023-08-17T12:47:42;10.97;;;7.00;;
53022;SDS011;38913;44.338;11.206;2023-08-17T12:50:07;10.35;;;7.07;;
53022;SDS011;38913;44.338;11.206;2023-08-17T12:52:33;9.95;;;7.25;;
53022;SDS011;38913;44.338;11.206;2023-08-17T12:54:59;10.70;;;7.00;;
53022;SDS011;38913;44.338;11.206;2023-08-17T12:57:24;12.60;;;8.10;;
53022;SDS011;38913;44.338;11.206;2023-08-17T12:59:49;12.37;;;7.53;;
53022;SDS011;38913;44.338;11.206;2023-08-17T13:02:15;9.63;;;7.18;;
53022;SDS011;38913;44.338;11.206;2023-08-17T13:04:41;8.52;;;7.40;;
53022;SDS011;38913;44.338;11.206;2023-08-17T13:07:06;9.20;;;6.95;;
53022;SDS011;38913;44.338;11.206;2023-08-17T13:09:31;14.50;;;7.93;;
53022;SDS011;38913;44.338;11.206;2023-08-17T13:11:56;9.13;;;8.20;;
53022;SDS011;38913;44.338;11.206;2023-08-17T13:14:22;7.90;;;7.20;;
53022;SDS011;38913;44.338;11.206;2023-08-17T13:16:48;8.07;;;7.28;;
53022;SDS011;38913;44.338;11.206;2023-08-17T13:19:13;8.02;;;7.32;;
53022;SDS011;38913;44.338;11.206;2023-08-17T13:21:39;8.10;;;7.40;;
53022;SDS011;38913;44.338;11.206;2023-08-17T13:24:04;8.70;;;7.70;;
53022;SDS011;38913;44.338;11.206;2023-08-17T13:26:29;8.23;;;7.43;;
53022;SDS011;38913;44.338;11.206;2023-08-17T13:28:55;8.25;;;7.45;;
53022;SDS011;38913;44.338;11.206;2023-08-17T13:31:21;8.40;;;7.50;;
53022;SDS011;38913;44.338;11.206;2023-08-17T13:33:46;8.47;;;7.67;;
53022;SDS011;38913;44.338;11.206;2023-08-17T13:36:11;8.10;;;7.30;;
53022;SDS011;38913;44.338;11.206;2023-08-17T13:38:36;9.03;;;8.10;;
53022;SDS011;38913;44.338;11.206;2023-08-17T13:41:03;8.30;;;7.55;;
53022;SDS011;38913;44.338;11.206;2023-08-17T13:43:29;9.40;;;8.18;;
53022;SDS011;38913;44.338;11.206;2023-08-17T13:45:54;8.87;;;7.63;;
53022;SDS011;38913;44.338;11.206;2023-08-17T13:48:19;8.60;;;7.70;;
53022;SDS011;38913;44.338;11.206;2023-08-17T13:50:44;8.80;;;7.77;;
53022;SDS011;38913;44.338;11.206;2023-08-17T13:53:10;11.25;;;7.90;;
53022;SDS011;38913;44.338;11.206;2023-08-17T13:55:35;8.77;;;7.97;;
53022;SDS011;38913;44.338;11.206;2023-08-17T13:58:00;8.50;;;7.60;;
53022;SDS011;38913;44.338;11.206;2023-08-17T14:00:26;8.20;;;7.40;;
53022;SDS011;38913;44.338;11.206;2023-08-17T14:02:51;8.18;;;7.47;;
53022;SDS011;38913;44.338;11.206;2023-08-17T14:05:17;8.40;;;7.60;;
53022;SDS011;38913;44.338;11.206;2023-08-17T14:07:42;9.20;;;8.37;;
53022;SDS011;38913;44.338;11.206;2023-08-17T14:10:07;9.47;;;8.00;;
53022;SDS011;38913;44.338;11.206;2023-08-17T14:12:33;9.05;;;8.25;;
53022;SDS011;38913;44.338;11.206;2023-08-17T14:14:59;9.10;;;8.20;;
53022;SDS011;38913;44.338;11.206;2023-08-17T14:17:24;8.90;;;8.10;;
53022;SDS011;38913;44.338;11.206;2023-08-17T14:19:49;9.80;;;8.80;;
53022;SDS011;38913;44.338;11.206;2023-08-17T14:22:14;9.03;;;8.13;;
53022;SDS011;38913;44.338;11.206;2023-08-17T14:24:39;9.40;;;8.60;;
53022;SDS011;38913;44.338;11.206;2023-08-17T14:27:05;9.13;;;8.27;;